Pagrindinis puslapis
METAR-TAF:

METAR-TAF

Oro uostai :

Florø, Norvegija

platuma: 61-35N, ilguma: 005-02E, Aukštis: 0 m

Dabartinis oras

Ataskaita buvo paskelbta 34 minutes, ne 03:20 UTC
Vėjas 1 kt iš Šiaurės/Šiaurės Rytų
Temperatūra 12°C
Drėgmė 100%
Slėgis 1014 hPa
Matomumas 10 km arba daugiau

METAR: ENFL 250320Z AUTO 02001KT 9999NDV FEW015/// OVC022/// 12/12 Q1014

Laikas: 05:54 (03:54 UTC)

Prognozė

Ataskaita buvo paskelbta 1 valandą ir 54 minutes, ne 02:00 UTC
Prognozė galioja nuo 25 metu 03 UTC su 25 metu 12 UTC
Vėjas 5 kt iš Šiaurės/Šiaurės Vakarų
Matomumas 10 km arba daugiau
Mažai debesys ne aukštis 1200 ft
Su prošvaistėmis ne aukštis 3000 ft
Tikimybė 40% :
Laikinai
nuo 25 metu 03 UTC su 25 metu 05 UTC
Su prošvaistėmis ne aukštis 700 ft

TAF: ENFL 250200Z 2503/2512 33005KT 9999 FEW012 BKN030 PROB40 TEMPO 2503/2505 BKN007

Orai ataskaitas ir orų prognozės (METAR, TAF).

turimą stotys yra geltonos ir raudonos taškus žemėlapyje.

Perkelti pele per norėdami pamatyti stoties vardą.

Tada spustelėkite, norėdami matyti oro stebėjimo ir prognozės.

Norėdami pakeisti žemėlapį: spustelėkite ant žalios mygtukų su juodo kryžiaus žemyn,; žalią mygtuką su brūkšneliu, jei norite nutolinti; arba žalių rodyklių gretimoms žemėlapius.


METAR-TAF: